Time,TemperatureF,DewpointF,PressureIn,WindDirection,WindDirectionDegrees,WindSpeedMPH,WindSpeedGustMPH,Humidity,HourlyPrecipIn,Conditions,Clouds,dailyrainin,SoftwareType,DateUTC
2013-03-16 00:02:00,49.0,28.0,-100.00,West,270,8.0,11.0,45,0.00,,,-99.99,,2013-03-16 04:02:00,
2013-03-16 00:13:00,48.0,28.0,-100.00,West,275,12.0,16.0,46,0.00,,,-99.99,,2013-03-16 04:13:00,
2013-03-16 00:23:00,48.0,28.0,-100.00,West,275,12.0,16.0,46,0.00,,,-99.99,,2013-03-16 04:23:00,
2013-03-16 00:33:00,48.0,28.0,-100.00,West,270,7.0,9.0,47,0.00,,,-99.99,,2013-03-16 04:33:00,
2013-03-16 00:43:00,47.0,28.0,-100.00,West,260,4.0,6.0,48,0.00,,,-99.99,,2013-03-16 04:43:00,
2013-03-16 00:52:00,47.0,29.0,-100.00,WNW,285,6.0,7.0,49,0.00,,,-99.99,,2013-03-16 04:52:00,
2013-03-16 01:02:00,47.0,29.0,-100.00,WNW,285,6.0,7.0,49,0.00,,,-99.99,,2013-03-16 05:02:00,
2013-03-16 01:12:00,47.0,28.0,-100.00,West,270,6.0,9.0,49,0.00,,,-99.99,,2013-03-16 05:12:00,
2013-03-16 01:22:00,46.0,29.0,-100.00,NW,325,4.0,6.0,52,0.00,,,-99.99,,2013-03-16 05:22:00,
2013-03-16 01:32:00,46.0,29.0,-100.00,NW,325,4.0,6.0,52,0.00,,,-99.99,,2013-03-16 05:32:00,
2013-03-16 01:42:00,46.0,29.0,-100.00,West,280,5.0,7.0,53,0.00,,,-99.99,,2013-03-16 05:42:00,
2013-03-16 01:53:00,46.0,29.0,-100.00,West,280,5.0,7.0,53,0.00,,,-99.99,,2013-03-16 05:53:00,
2013-03-16 02:02:00,46.0,30.0,-100.00,West,270,6.0,7.0,54,0.00,,,-99.99,,2013-03-16 06:02:00,
2013-03-16 02:12:00,45.0,30.0,-100.00,WNW,285,4.0,6.0,55,0.00,,,-99.99,,2013-03-16 06:12:00,
2013-03-16 02:22:00,45.0,30.0,-100.00,WNW,285,4.0,6.0,55,0.00,,,-99.99,,2013-03-16 06:22:00,
2013-03-16 02:32:00,45.0,31.0,-100.00,West,270,2.0,3.0,57,0.00,,,-99.99,,2013-03-16 06:32:00,
2013-03-16 02:42:00,46.0,32.0,-100.00,WNW,295,4.0,6.0,58,0.00,,,-99.99,,2013-03-16 06:42:00,
2013-03-16 02:52:00,45.0,32.0,-100.00,West,280,4.0,6.0,60,0.00,,,-99.99,,2013-03-16 06:52:00,
2013-03-16 03:02:00,45.0,32.0,-100.00,West,280,4.0,6.0,60,0.00,,,-99.99,,2013-03-16 07:02:00,
2013-03-16 03:12:00,45.0,32.0,-100.00,WNW,285,6.0,8.0,61,0.00,,,-99.99,,2013-03-16 07:12:00,
2013-03-16 03:22:00,45.0,33.0,-100.00,West,275,7.0,9.0,63,0.00,,,-99.99,,2013-03-16 07:22:00,
2013-03-16 03:32:00,45.0,33.0,-100.00,West,275,7.0,9.0,63,0.00,,,-99.99,,2013-03-16 07:32:00,
2013-03-16 03:42:00,45.0,33.0,-100.00,SSE,155,0.0,1.0,64,0.00,,,-99.99,,2013-03-16 07:42:00,
2013-03-16 03:52:00,44.0,33.0,-100.00,SE,125,3.0,6.0,65,0.00,,,-99.99,,2013-03-16 07:52:00,
2013-03-16 04:03:00,44.0,33.0,-100.00,SE,125,3.0,6.0,65,0.00,,,-99.99,,2013-03-16 08:03:00,
2013-03-16 04:12:00,44.0,34.0,-100.00,ENE,75,3.0,5.0,67,0.00,,,-99.99,,2013-03-16 08:12:00,
2013-03-16 04:23:00,44.0,34.0,-100.00,North,10,1.0,2.0,67,0.00,,,-99.99,,2013-03-16 08:23:00,
2013-03-16 04:32:00,44.0,34.0,-100.00,North,10,1.0,2.0,67,0.00,,,-99.99,,2013-03-16 08:32:00,
2013-03-16 04:42:00,44.0,34.0,-100.00,NE,55,0.0,0.0,68,0.00,,,-99.99,,2013-03-16 08:42:00,
2013-03-16 04:52:00,44.0,34.0,-100.00,NE,55,0.0,0.0,68,0.00,,,-99.99,,2013-03-16 08:52:00,
2013-03-16 05:02:00,43.0,34.0,-100.00,NE,55,0.0,0.0,69,0.00,,,-99.99,,2013-03-16 09:02:00,
2013-03-16 05:12:00,43.0,34.0,-100.00,WNW,300,1.0,1.0,71,0.00,,,-99.99,,2013-03-16 09:12:00,
2013-03-16 05:22:00,43.0,34.0,-100.00,WNW,300,1.0,1.0,71,0.00,,,-99.99,,2013-03-16 09:22:00,
2013-03-16 05:33:00,43.0,34.0,-100.00,WNW,300,0.0,0.0,71,0.00,,,-99.99,,2013-03-16 09:33:00,
2013-03-16 05:42:00,43.0,35.0,-100.00,NW,310,0.0,0.0,72,0.00,,,-99.99,,2013-03-16 09:42:00,
2013-03-16 05:52:00,43.0,35.0,-100.00,NW,310,0.0,0.0,72,0.00,,,-99.99,,2013-03-16 09:52:00,
2013-03-16 06:03:00,43.0,35.0,-100.00,NW,310,0.0,0.0,72,0.00,,,-99.99,,2013-03-16 10:03:00,
2013-03-16 06:12:00,43.0,35.0,-100.00,NW,315,0.0,0.0,73,0.00,,,-99.99,,2013-03-16 10:12:00,
2013-03-16 06:23:00,43.0,35.0,-100.00,NW,315,0.0,0.0,73,0.00,,,-99.99,,2013-03-16 10:23:00,
2013-03-16 06:32:00,42.0,34.0,-100.00,ESE,110,4.0,6.0,74,0.00,,,-99.99,,2013-03-16 10:32:00,
2013-03-16 06:42:00,41.0,33.0,-100.00,SE,130,2.0,3.0,75,0.00,,,-99.99,,2013-03-16 10:42:00,
2013-03-16 06:52:00,41.0,33.0,-100.00,SE,130,2.0,3.0,75,0.00,,,-99.99,,2013-03-16 10:52:00,
2013-03-16 07:03:00,40.0,33.0,-100.00,SSE,160,0.0,2.0,76,0.00,,,-99.99,,2013-03-16 11:03:00,
2013-03-16 07:12:00,40.0,33.0,-100.00,ESE,120,2.0,4.0,77,0.00,,,-99.99,,2013-03-16 11:12:00,
2013-03-16 07:22:00,40.0,33.0,-100.00,ESE,120,2.0,4.0,77,0.00,,,-99.99,,2013-03-16 11:22:00,
2013-03-16 07:32:00,40.0,34.0,-100.00,East,90,1.0,2.0,79,0.00,,,-99.99,,2013-03-16 11:32:00,
2013-03-16 07:43:00,40.0,34.0,-100.00,East,85,0.0,1.0,80,0.00,,,-99.99,,2013-03-16 11:43:00,
2013-03-16 07:52:00,40.0,34.0,-100.00,East,85,0.0,1.0,80,0.00,,,-99.99,,2013-03-16 11:52:00,
2013-03-16 08:02:00,40.0,34.0,-100.00,North,10,2.0,3.0,81,0.00,,,-99.99,,2013-03-16 12:02:00,
2013-03-16 08:12:00,39.0,34.0,-100.00,ESE,110,2.0,2.0,81,0.00,,,-99.99,,2013-03-16 12:12:00,
2013-03-16 08:22:00,39.0,34.0,-100.00,ESE,110,2.0,2.0,81,0.00,,,-99.99,,2013-03-16 12:22:00,
2013-03-16 08:32:00,39.0,34.0,-100.00,SE,125,1.0,1.0,82,0.00,,,-99.99,,2013-03-16 12:32:00,
2013-03-16 08:42:00,39.0,34.0,-100.00,SE,125,2.0,2.0,82,0.00,,,-99.99,,2013-03-16 12:42:00,
2013-03-16 08:52:00,39.0,34.0,-100.00,NE,50,1.0,2.0,83,0.00,,,-99.99,,2013-03-16 12:52:00,
2013-03-16 09:02:00,39.0,34.0,-100.00,NE,50,1.0,2.0,83,0.00,,,-99.99,,2013-03-16 13:02:00,
2013-03-16 09:12:00,39.0,34.0,-100.00,NE,40,2.0,4.0,83,0.00,,,-99.99,,2013-03-16 13:12:00,
2013-03-16 09:22:00,39.0,34.0,-100.00,NE,40,2.0,4.0,83,0.00,,,-99.99,,2013-03-16 13:22:00,
2013-03-16 09:32:00,39.0,35.0,-100.00,NE,35,2.0,3.0,83,0.00,,,-99.99,,2013-03-16 13:32:00,
2013-03-16 09:42:00,39.0,35.0,-100.00,East,95,2.0,2.0,83,0.00,,,-99.99,,2013-03-16 13:42:00,
2013-03-16 09:52:00,39.0,34.0,-100.00,NE,40,5.0,7.0,82,0.00,,,-99.99,,2013-03-16 13:52:00,
2013-03-16 10:03:00,39.0,34.0,-100.00,NE,40,5.0,7.0,82,0.00,,,-99.99,,2013-03-16 14:03:00,
2013-03-16 10:12:00,40.0,35.0,-100.00,NE,45,6.0,7.0,81,0.00,,,-99.99,,2013-03-16 14:12:00,
2013-03-16 10:22:00,40.0,34.0,-100.00,NNE,25,6.0,7.0,79,0.00,,,-99.99,,2013-03-16 14:22:00,
2013-03-16 10:32:00,40.0,34.0,-100.00,NNE,25,6.0,7.0,79,0.00,,,-99.99,,2013-03-16 14:32:00,
2013-03-16 10:42:00,40.0,34.0,-100.00,East,80,4.0,6.0,79,0.00,,,-99.99,,2013-03-16 14:42:00,
2013-03-16 10:52:00,40.0,34.0,-100.00,ENE,65,2.0,5.0,79,0.00,,,-99.99,,2013-03-16 14:52:00,
2013-03-16 11:03:00,40.0,34.0,-100.00,ENE,65,2.0,5.0,79,0.00,,,-99.99,,2013-03-16 15:03:00,
2013-03-16 11:13:00,40.0,34.0,-100.00,ENE,60,4.0,7.0,79,0.00,,,-99.99,,2013-03-16 15:13:00,
2013-03-16 11:22:00,40.0,34.0,-100.00,ENE,60,4.0,7.0,79,0.00,,,-99.99,,2013-03-16 15:22:00,
2013-03-16 11:33:00,40.0,34.0,-100.00,East,90,1.0,4.0,79,0.00,,,-99.99,,2013-03-16 15:33:00,
2013-03-16 11:43:00,40.0,34.0,-100.00,NE,55,5.0,7.0,79,0.00,,,-99.99,,2013-03-16 15:43:00,
2013-03-16 11:53:00,40.0,34.0,-100.00,ENE,65,4.0,5.0,79,0.00,,,-99.99,,2013-03-16 15:53:00,
2013-03-16 12:03:00,40.0,34.0,-100.00,ENE,65,4.0,5.0,79,0.00,,,-99.99,,2013-03-16 16:03:00,
2013-03-16 12:13:00,40.0,34.0,-100.00,NE,55,3.0,4.0,79,0.01,,,-99.99,,2013-03-16 16:13:00,
2013-03-16 12:23:00,40.0,34.0,-100.00,NE,55,3.0,4.0,79,0.01,,,-99.99,,2013-03-16 16:23:00,
2013-03-16 12:33:00,40.0,35.0,-100.00,ENE,60,3.0,4.0,81,0.01,,,-99.99,,2013-03-16 16:33:00,
2013-03-16 12:42:00,40.0,35.0,-100.00,NE,50,4.0,5.0,83,0.00,,,-99.99,,2013-03-16 16:42:00,
2013-03-16 12:53:00,40.0,36.0,-100.00,ESE,120,2.0,2.0,85,0.00,,,-99.99,,2013-03-16 16:53:00,
2013-03-16 13:03:00,40.0,36.0,-100.00,ESE,120,2.0,2.0,85,0.00,,,-99.99,,2013-03-16 17:03:00,
2013-03-16 13:13:00,40.0,36.0,-100.00,East,100,2.0,4.0,87,0.00,,,-99.99,,2013-03-16 17:13:00,
2013-03-16 13:23:00,40.0,36.0,-100.00,East,100,2.0,4.0,87,0.00,,,-99.99,,2013-03-16 17:23:00,
2013-03-16 13:33:00,39.0,36.0,-100.00,East,85,2.0,3.0,88,0.00,,,-99.99,,2013-03-16 17:33:00,
2013-03-16 13:43:00,40.0,36.0,-100.00,ENE,60,2.0,3.0,88,0.00,,,-99.99,,2013-03-16 17:43:00,
2013-03-16 13:52:00,40.0,37.0,-100.00,ESE,110,1.0,2.0,89,0.00,,,-99.99,,2013-03-16 17:52:00,
2013-03-16 14:02:00,40.0,37.0,-100.00,ESE,110,1.0,2.0,89,0.00,,,-99.99,,2013-03-16 18:02:00,
2013-03-16 14:13:00,40.0,37.0,-100.00,ENE,75,3.0,4.0,89,0.00,,,-99.99,,2013-03-16 18:13:00,
2013-03-16 14:23:00,40.0,37.0,-100.00,ENE,75,3.0,4.0,89,0.00,,,-99.99,,2013-03-16 18:23:00,
2013-03-16 14:33:00,40.0,37.0,-100.00,ENE,70,2.0,3.0,90,0.00,,,-99.99,,2013-03-16 18:33:00,
2013-03-16 14:43:00,40.0,38.0,-100.00,ENE,75,4.0,5.0,90,0.00,,,-99.99,,2013-03-16 18:43:00,
2013-03-16 14:52:00,40.0,37.0,-100.00,NE,40,5.0,6.0,90,0.00,,,-99.99,,2013-03-16 18:52:00,
2013-03-16 15:02:00,40.0,37.0,-100.00,NE,40,5.0,6.0,90,0.00,,,-99.99,,2013-03-16 19:02:00,
2013-03-16 15:12:00,40.0,37.0,-100.00,NE,55,4.0,4.0,90,0.00,,,-99.99,,2013-03-16 19:12:00,
2013-03-16 15:22:00,40.0,37.0,-100.00,NE,55,4.0,4.0,90,0.00,,,-99.99,,2013-03-16 19:22:00,
2013-03-16 15:33:00,40.0,37.0,-100.00,East,95,1.0,2.0,90,0.00,,,-99.99,,2013-03-16 19:33:00,
2013-03-16 15:42:00,39.0,37.0,-100.00,NE,55,2.0,4.0,91,0.00,,,-99.99,,2013-03-16 19:42:00,
2013-03-16 15:52:00,39.0,37.0,-100.00,NE,55,2.0,4.0,91,0.00,,,-99.99,,2013-03-16 19:52:00,
2013-03-16 16:02:00,39.0,37.0,-100.00,East,100,2.0,2.0,91,0.00,,,-99.99,,2013-03-16 20:02:00,
2013-03-16 16:12:00,39.0,37.0,-100.00,East,100,1.0,2.0,92,0.00,,,-99.99,,2013-03-16 20:12:00,
2013-03-16 16:22:00,39.0,37.0,-100.00,East,100,1.0,2.0,92,0.00,,,-99.99,,2013-03-16 20:22:00,
2013-03-16 16:33:00,39.0,37.0,-100.00,East,100,0.0,1.0,92,0.00,,,-99.99,,2013-03-16 20:33:00,
2013-03-16 16:42:00,39.0,37.0,-100.00,SE,130,3.0,4.0,92,0.00,,,-99.99,,2013-03-16 20:42:00,
2013-03-16 16:52:00,39.0,37.0,-100.00,SE,130,3.0,4.0,92,0.00,,,-99.99,,2013-03-16 20:52:00,
2013-03-16 17:02:00,38.0,37.0,-100.00,East,100,2.0,2.0,93,0.00,,,-99.99,,2013-03-16 21:02:00,
2013-03-16 17:12:00,38.0,36.0,-100.00,ESE,120,4.0,4.0,93,0.00,,,-99.99,,2013-03-16 21:12:00,
2013-03-16 17:22:00,38.0,36.0,-100.00,ESE,120,4.0,4.0,93,0.00,,,-99.99,,2013-03-16 21:22:00,
2013-03-16 17:33:00,38.0,36.0,-100.00,ESE,105,0.0,0.0,93,0.00,,,-99.99,,2013-03-16 21:33:00,
2013-03-16 17:43:00,37.0,36.0,-100.00,SE,130,2.0,2.0,93,0.00,,,-99.99,,2013-03-16 21:43:00,
2013-03-16 17:52:00,38.0,36.0,-100.00,SE,125,1.0,2.0,93,0.00,,,-99.99,,2013-03-16 21:52:00,
2013-03-16 18:03:00,38.0,36.0,-100.00,SE,125,1.0,2.0,93,0.00,,,-99.99,,2013-03-16 22:03:00,
2013-03-16 18:12:00,37.0,35.0,-100.00,SE,145,1.0,2.0,93,0.00,,,-99.99,,2013-03-16 22:12:00,
2013-03-16 18:23:00,37.0,35.0,-100.00,SE,145,1.0,2.0,93,0.00,,,-99.99,,2013-03-16 22:23:00,
2013-03-16 18:33:00,37.0,35.0,-100.00,ESE,115,0.0,0.0,94,0.00,,,-99.99,,2013-03-16 22:33:00,
2013-03-16 18:42:00,37.0,35.0,-100.00,SE,135,1.0,1.0,94,0.00,,,-99.99,,2013-03-16 22:42:00,
2013-03-16 18:52:00,37.0,35.0,-100.00,SSE,160,0.0,0.0,94,0.00,,,-99.99,,2013-03-16 22:52:00,
2013-03-16 19:02:00,37.0,35.0,-100.00,SSE,160,0.0,0.0,94,0.00,,,-99.99,,2013-03-16 23:02:00,
2013-03-16 19:13:00,37.0,35.0,-100.00,SE,135,1.0,2.0,94,0.00,,,-99.99,,2013-03-16 23:13:00,
2013-03-16 19:22:00,37.0,35.0,-100.00,SE,135,1.0,2.0,94,0.00,,,-99.99,,2013-03-16 23:22:00,
2013-03-16 19:33:00,37.0,35.0,-100.00,East,90,0.0,1.0,94,0.00,,,-99.99,,2013-03-16 23:33:00,
2013-03-16 19:42:00,37.0,35.0,-100.00,SE,130,2.0,3.0,94,0.00,,,-99.99,,2013-03-16 23:42:00,
2013-03-16 19:52:00,37.0,35.0,-100.00,SE,130,2.0,3.0,94,0.00,,,-99.99,,2013-03-16 23:52:00,
2013-03-16 20:02:00,37.0,35.0,-100.00,SSW,195,0.0,0.0,94,0.00,,,-99.99,,2013-03-17 00:02:00,
2013-03-16 20:12:00,37.0,35.0,-100.00,SSE,150,1.0,4.0,94,0.00,,,-99.99,,2013-03-17 00:12:00,
2013-03-16 20:22:00,39.0,37.0,-100.00,NE,50,0.0,0.0,94,0.00,,,-99.99,,2013-03-17 00:22:00,
2013-03-16 20:33:00,39.0,37.0,-100.00,NE,50,0.0,0.0,94,0.00,,,-99.99,,2013-03-17 00:33:00,
2013-03-16 20:42:00,38.0,37.0,-100.00,North,0,1.0,4.0,94,0.00,,,-99.99,,2013-03-17 00:42:00,
2013-03-16 20:52:00,38.0,37.0,-100.00,North,0,1.0,4.0,94,0.00,,,-99.99,,2013-03-17 00:52:00,
2013-03-16 21:02:00,40.0,38.0,-100.00,WNW,295,6.0,6.0,94,0.00,,,-99.99,,2013-03-17 01:02:00,
2013-03-16 21:12:00,42.0,40.0,-100.00,East,85,3.0,4.0,94,0.00,,,-99.99,,2013-03-17 01:12:00,
2013-03-16 21:22:00,42.0,40.0,-100.00,East,85,3.0,4.0,94,0.00,,,-99.99,,2013-03-17 01:22:00,
2013-03-16 21:32:00,39.0,37.0,-100.00,SE,135,3.0,4.0,94,0.00,,,-99.99,,2013-03-17 01:32:00,
2013-03-16 21:42:00,38.0,37.0,-100.00,NNE,25,1.0,1.0,94,0.00,,,-99.99,,2013-03-17 01:42:00,
2013-03-16 21:52:00,38.0,37.0,-100.00,NNE,25,1.0,1.0,94,0.00,,,-99.99,,2013-03-17 01:52:00,
2013-03-16 22:03:00,38.0,36.0,-100.00,South,170,3.0,4.0,94,0.00,,,-99.99,,2013-03-17 02:03:00,
2013-03-16 22:13:00,37.0,36.0,-100.00,SE,140,1.0,2.0,94,0.00,,,-99.99,,2013-03-17 02:13:00,
2013-03-16 22:22:00,37.0,36.0,-100.00,SE,140,1.0,2.0,94,0.00,,,-99.99,,2013-03-17 02:22:00,
2013-03-16 22:33:00,37.0,35.0,-100.00,ENE,75,1.0,2.0,94,0.00,,,-99.99,,2013-03-17 02:33:00,
2013-03-16 22:43:00,37.0,36.0,-100.00,NNW,330,5.0,11.0,94,0.00,,,-99.99,,2013-03-17 02:43:00,
2013-03-16 22:52:00,37.0,36.0,-100.00,NNW,330,5.0,11.0,94,0.00,,,-99.99,,2013-03-17 02:52:00,
2013-03-16 23:03:00,40.0,38.0,-100.00,North,0,2.0,4.0,94,0.00,,,-99.99,,2013-03-17 03:03:00,
2013-03-16 23:12:00,39.0,38.0,-100.00,North,10,2.0,4.0,94,0.00,,,-99.99,,2013-03-17 03:12:00,
2013-03-16 23:22:00,39.0,38.0,-100.00,North,10,2.0,4.0,94,0.00,,,-99.99,,2013-03-17 03:22:00,
2013-03-16 23:34:00,40.0,38.0,-100.00,West,265,7.0,9.0,92,0.00,,,-99.99,,2013-03-17 03:34:00,
2013-03-16 23:43:00,40.0,37.0,-100.00,NW,325,6.0,9.0,89,0.00,,,-99.99,,2013-03-17 03:43:00,
2013-03-16 23:52:00,40.0,37.0,-100.00,NW,325,6.0,9.0,89,0.00,,,-99.99,,2013-03-17 03:52:00,